createdAt,value
2022-12-15T00:02:35.838Z,94841.06
2022-12-15T00:05:22.044Z,94855.28
2022-12-15T00:08:07.781Z,94863.53
2022-12-15T00:10:53.644Z,94850.53
2022-12-15T00:13:39.012Z,94850.75
2022-12-15T00:16:24.884Z,94850.34
2022-12-15T00:19:10.381Z,94851.13
2022-12-15T00:21:55.851Z,94873.59
2022-12-15T00:24:41.273Z,94861.41
2022-12-15T00:27:26.661Z,94868.72
2022-12-15T00:30:12.221Z,94878.53
2022-12-15T00:32:57.721Z,94882.88
2022-12-15T00:35:43.572Z,94889.59
2022-12-15T00:38:31.659Z,94901.22
2022-12-15T00:41:01.660Z,94912.22
2022-12-15T00:43:31.020Z,94922.50
2022-12-15T00:46:17.639Z,94929.94
2022-12-15T00:48:44.792Z,94938.66
2022-12-15T00:51:12.211Z,94932.72
2022-12-15T00:53:58.252Z,94927.78
2022-12-15T00:56:43.972Z,94934.91
2022-12-15T00:59:30.285Z,94936.72
2022-12-15T01:02:15.921Z,94939.69
2022-12-15T01:05:01.451Z,94942.47
2022-12-15T01:07:49.958Z,94953.16
2022-12-15T01:10:36.751Z,94949.97
2022-12-15T01:13:23.377Z,94943.47
2022-12-15T01:16:09.493Z,94949.41
2022-12-15T01:18:55.148Z,94953.97
2022-12-15T01:21:24.916Z,94947.66
2022-12-15T01:23:52.719Z,94953.63
2022-12-15T01:26:19.801Z,94966.25
2022-12-15T01:28:46.776Z,94964.28
2022-12-15T01:31:14.501Z,94972.78
2022-12-15T01:33:43.889Z,94978.13
2022-12-15T01:36:11.910Z,94978.31
2022-12-15T01:38:39.001Z,94977.34
2022-12-15T01:41:09.749Z,94980.50
2022-12-15T01:43:39.911Z,94977.94
2022-12-15T01:46:13.200Z,94973.22
2022-12-15T01:48:49.171Z,94991.94
2022-12-15T01:51:32.611Z,94997.69
2022-12-15T01:53:59.573Z,94986.09
2022-12-15T01:56:30.072Z,94992.19
2022-12-15T01:59:03.330Z,94989.03
2022-12-15T02:01:30.559Z,94985.69
2022-12-15T02:03:57.591Z,94986.28
2022-12-15T02:06:26.276Z,94989.66
2022-12-15T02:08:55.801Z,95001.50
2022-12-15T02:11:38.022Z,95005.41
2022-12-15T02:14:07.635Z,95012.56
2022-12-15T02:16:46.428Z,95011.56
2022-12-15T02:19:35.292Z,95007.03
2022-12-15T02:22:24.301Z,95003.47
2022-12-15T02:24:57.054Z,95029.34
2022-12-15T02:27:39.201Z,95027.19
2022-12-15T02:30:38.725Z,95018.91
2022-12-15T02:33:24.482Z,95017.91
2022-12-15T02:36:04.632Z,95019.50
2022-12-15T02:38:34.925Z,95016.53
2022-12-15T02:41:04.121Z,95029.94
2022-12-15T02:43:36.290Z,95043.34
2022-12-15T02:46:13.466Z,95061.09
2022-12-15T02:48:56.241Z,95062.28
2022-12-15T02:52:00.088Z,95046.94
2022-12-15T02:54:47.082Z,95042.19
2022-12-15T02:57:38.721Z,95051.91
2022-12-15T03:00:09.761Z,95054.47
2022-12-15T03:02:41.434Z,95056.25
2022-12-15T03:05:09.720Z,95049.16
2022-12-15T03:07:36.586Z,95063.53
2022-12-15T03:10:06.298Z,95068.88
2022-12-15T03:12:33.340Z,95081.28
2022-12-15T03:15:00.275Z,95069.47
2022-12-15T03:17:27.281Z,95074.03
2022-12-15T03:19:54.206Z,95082.66
2022-12-15T03:22:21.221Z,95077.75
2022-12-15T03:24:48.574Z,95072.25
2022-12-15T03:27:15.952Z,95089.03
2022-12-15T03:29:43.001Z,95083.28
2022-12-15T03:32:10.280Z,95087.25
2022-12-15T03:34:37.297Z,95084.69
2022-12-15T03:37:04.273Z,95068.69
2022-12-15T03:39:31.173Z,95070.50
2022-12-15T03:41:58.004Z,95081.53
2022-12-15T03:44:25.031Z,95075.41
2022-12-15T03:46:51.982Z,95070.28
2022-12-15T03:49:18.893Z,95076.63
2022-12-15T03:51:45.804Z,95080.16
2022-12-15T03:54:14.195Z,95084.06
2022-12-15T03:56:41.211Z,95079.69
2022-12-15T03:59:08.232Z,95068.88
2022-12-15T04:01:36.932Z,95071.25
2022-12-15T04:04:05.093Z,95063.94
2022-12-15T04:06:32.149Z,95072.25
2022-12-15T04:08:59.114Z,95065.13
2022-12-15T04:11:26.161Z,95062.75
2022-12-15T04:13:53.148Z,95058.22
2022-12-15T04:16:20.608Z,95051.31
2022-12-15T04:19:08.280Z,95052.13
2022-12-15T04:21:35.321Z,95047.78
2022-12-15T04:24:20.824Z,95050.16
2022-12-15T04:27:06.381Z,95058.22
2022-12-15T04:29:52.176Z,95052.28
2022-12-15T04:32:37.821Z,95047.56
2022-12-15T04:35:24.131Z,95050.13
2022-12-15T04:38:09.891Z,95047.34
2022-12-15T04:40:55.635Z,95052.47
2022-12-15T04:43:41.391Z,95070.41
2022-12-15T04:46:27.204Z,95066.31
2022-12-15T04:49:12.811Z,95060.41
2022-12-15T04:51:58.733Z,95046.22
2022-12-15T04:54:44.731Z,95037.97
2022-12-15T04:57:33.381Z,95045.84
2022-12-15T05:00:20.024Z,95046.22
2022-12-15T05:03:06.833Z,95056.06
2022-12-15T05:05:52.495Z,95059.97
2022-12-15T05:08:38.281Z,95062.94
2022-12-15T05:11:24.053Z,95065.25
2022-12-15T05:14:09.764Z,95072.75
2022-12-15T05:16:55.512Z,95070.00
2022-12-15T05:19:41.120Z,95069.38
2022-12-15T05:22:26.774Z,95072.75
2022-12-15T05:25:12.506Z,95089.91
2022-12-15T05:27:57.898Z,95091.31
2022-12-15T05:30:43.686Z,95088.94
2022-12-15T05:33:10.834Z,95106.09
2022-12-15T05:35:37.778Z,95113.97
2022-12-15T05:38:07.592Z,95109.81
2022-12-15T05:40:34.634Z,95108.84
2022-12-15T05:43:01.656Z,95114.16
2022-12-15T05:45:28.738Z,95112.38
2022-12-15T05:47:56.420Z,95115.91
2022-12-15T05:50:23.803Z,95121.84
2022-12-15T05:52:50.910Z,95123.63
2022-12-15T05:55:19.190Z,95109.03
2022-12-15T05:57:53.896Z,95115.75
2022-12-15T06:00:21.460Z,95124.63
2022-12-15T06:02:48.703Z,95137.25
2022-12-15T06:05:17.916Z,95142.59
2022-12-15T06:07:44.995Z,95138.03
2022-12-15T06:10:12.058Z,95136.44
2022-12-15T06:12:39.057Z,95146.47
2022-12-15T06:15:06.566Z,95153.22
2022-12-15T06:17:33.683Z,95150.81
2022-12-15T06:20:00.696Z,95152.97
2022-12-15T06:22:29.978Z,95173.50
2022-12-15T06:24:57.056Z,95188.28
2022-12-15T06:27:24.145Z,95186.06
2022-12-15T06:29:51.194Z,95183.28
2022-12-15T06:32:18.077Z,95184.25
2022-12-15T06:34:45.055Z,95180.09
2022-12-15T06:37:12.909Z,95179.50
2022-12-15T06:39:39.936Z,95196.28
2022-12-15T06:42:06.876Z,95205.38
2022-12-15T06:44:33.915Z,95206.19
2022-12-15T06:47:00.869Z,95212.69
2022-12-15T06:49:27.868Z,95210.13
2022-12-15T06:51:55.024Z,95231.44
2022-12-15T06:54:21.964Z,95236.97
2022-12-15T06:56:50.048Z,95246.47
2022-12-15T06:59:17.380Z,95235.25
2022-12-15T07:01:44.597Z,95233.47
2022-12-15T07:04:11.969Z,95248.47
2022-12-15T07:06:40.147Z,95252.06
2022-12-15T07:09:10.985Z,95261.06
2022-12-15T07:11:38.080Z,95269.50
2022-12-15T07:14:05.456Z,95266.38
2022-12-15T07:16:33.125Z,95267.06
2022-12-15T07:19:00.158Z,95261.56
2022-12-15T07:21:27.154Z,95266.31
2022-12-15T07:23:56.404Z,95267.00
2022-12-15T07:26:24.886Z,95270.78
2022-12-15T07:28:53.237Z,95271.44
2022-12-15T07:31:20.195Z,95269.25
2022-12-15T07:33:48.675Z,95271.44
2022-12-15T07:36:16.337Z,95280.81
2022-12-15T07:38:50.109Z,95285.94
2022-12-15T07:41:18.826Z,95283.47
2022-12-15T07:43:47.242Z,95295.72
2022-12-15T07:46:14.487Z,95296.34
2022-12-15T07:48:41.696Z,95297.91
2022-12-15T07:51:17.216Z,95296.22
2022-12-15T07:53:47.229Z,95305.13
2022-12-15T07:56:15.602Z,95308.88
2022-12-15T07:58:43.065Z,95316.84
2022-12-15T08:01:13.079Z,95323.38
2022-12-15T08:03:40.714Z,95324.59
2022-12-15T08:06:11.415Z,95324.81
2022-12-15T08:08:38.967Z,95325.44
2022-12-15T08:11:11.091Z,95328.41
2022-12-15T08:16:27.698Z,95335.75
2022-12-15T08:18:54.807Z,95330.66
2022-12-15T08:21:21.886Z,95329.09
2022-12-15T08:23:49.649Z,95338.81
2022-12-15T08:29:40.397Z,95338.28
2022-12-15T08:31:54.076Z,95332.38
2022-12-15T08:34:21.300Z,95323.91
2022-12-15T08:36:48.338Z,95329.31
2022-12-15T08:39:15.759Z,95335.88
2022-12-15T08:41:42.897Z,95341.25
2022-12-15T08:44:09.950Z,95335.16
2022-12-15T08:46:36.949Z,95341.53
2022-12-15T08:49:04.557Z,95350.25
2022-12-15T08:51:33.467Z,95359.78
2022-12-15T08:54:01.350Z,95365.75
2022-12-15T08:56:29.517Z,95351.91
2022-12-15T08:59:01.031Z,95344.41
2022-12-15T09:01:30.239Z,95352.16
2022-12-15T09:03:57.826Z,95362.47
2022-12-15T09:06:27.768Z,95353.34
2022-12-15T09:08:59.471Z,95351.75
2022-12-15T09:11:27.480Z,95343.44
2022-12-15T09:13:55.127Z,95345.81
2022-12-15T09:16:23.499Z,95340.28
2022-12-15T09:18:53.030Z,95345.59
2022-12-15T09:21:25.339Z,95340.59
2022-12-15T09:23:54.816Z,95335.22
2022-12-15T09:26:23.526Z,95328.25
2022-12-15T09:28:51.889Z,95343.47
2022-12-15T09:31:24.637Z,95336.25
2022-12-15T09:33:53.671Z,95360.94
2022-12-15T09:36:21.310Z,95362.78
2022-12-15T09:38:49.130Z,95363.78
2022-12-15T09:41:16.036Z,95365.78
2022-12-15T09:43:52.315Z,95373.72
2022-12-15T09:46:57.208Z,95378.22
2022-12-15T09:49:30.089Z,95381.22
2022-12-15T09:52:19.687Z,95370.41
2022-12-15T09:54:46.815Z,95386.53
2022-12-15T09:57:44.927Z,95384.38
2022-12-15T10:00:25.911Z,95382.56
2022-12-15T10:03:18.128Z,95386.78
2022-12-15T10:06:14.367Z,95380.19
2022-12-15T10:08:43.428Z,95379.25
2022-12-15T10:11:21.762Z,95382.22
2022-12-15T10:14:16.387Z,95384.22
2022-12-15T10:17:21.660Z,95383.81
2022-12-15T10:20:05.735Z,95371.66
2022-12-15T10:22:36.916Z,95373.44
2022-12-15T10:28:16.234Z,95374.22
2022-12-15T10:30:51.582Z,95365.25
2022-12-15T10:33:22.816Z,95368.75
2022-12-15T10:35:53.848Z,95373.94
2022-12-15T10:38:35.452Z,95369.34
2022-12-15T10:41:06.390Z,95378.81
2022-12-15T10:43:42.508Z,95378.94
2022-12-15T10:46:09.558Z,95391.69
2022-12-15T10:48:37.690Z,95392.38
2022-12-15T10:51:37.378Z,95387.50
2022-12-15T10:54:10.444Z,95393.50
2022-12-15T10:56:59.193Z,95402.72
2022-12-15T10:59:34.748Z,95399.22
2022-12-15T11:02:24.569Z,95408.50
2022-12-15T11:05:02.871Z,95411.88
2022-12-15T11:07:46.307Z,95413.91
2022-12-15T11:10:14.518Z,95412.56
2022-12-15T11:12:58.246Z,95402.47
2022-12-15T11:15:51.384Z,95394.31
2022-12-15T11:18:32.698Z,95383.13
2022-12-15T11:21:05.540Z,95385.13
2022-12-15T11:23:38.826Z,95373.66
2022-12-15T11:26:26.667Z,95367.50
2022-12-15T11:29:07.147Z,95355.53
2022-12-15T11:31:44.379Z,95341.06
2022-12-15T11:34:14.307Z,95349.59
2022-12-15T11:36:50.600Z,95363.47
2022-12-15T11:39:25.687Z,95365.00
2022-12-15T11:42:25.156Z,95362.38
2022-12-15T11:45:05.606Z,95348.91
2022-12-15T11:47:40.917Z,95347.91
2022-12-15T11:50:26.587Z,95350.69
2022-12-15T11:53:14.926Z,95338.13
2022-12-15T11:56:00.549Z,95331.53
2022-12-15T11:58:43.918Z,95314.69
2022-12-15T12:13:41.119Z,95310.50
2022-12-15T12:16:31.598Z,95307.66
2022-12-15T12:19:06.018Z,95305.59
2022-12-15T12:21:44.350Z,95316.59
2022-12-15T12:24:29.500Z,95320.25
2022-12-15T12:27:02.128Z,95322.88
2022-12-15T12:29:42.076Z,95320.78
2022-12-15T12:32:30.696Z,95324.09
2022-12-15T12:35:31.859Z,95329.13
2022-12-15T12:37:50.898Z,95318.59
2022-12-15T12:40:25.917Z,95324.59
2022-12-15T12:42:57.538Z,95334.72
2022-12-15T12:45:50.474Z,95348.66
2022-12-15T12:48:39.042Z,95345.31
2022-12-15T12:51:26.826Z,95344.97
2022-12-15T12:53:55.086Z,95335.94
2022-12-15T12:56:33.981Z,95329.28
2022-12-15T12:59:01.048Z,95329.53
2022-12-15T13:01:33.356Z,95327.13
2022-12-15T13:04:09.911Z,95320.13
2022-12-15T13:06:36.778Z,95312.19
2022-12-15T13:09:19.536Z,95321.22
2022-12-15T13:11:49.479Z,95316.25
2022-12-15T13:14:26.888Z,95305.88
2022-12-15T13:17:26.639Z,95310.19
2022-12-15T13:19:57.157Z,95325.56
2022-12-15T13:22:35.764Z,95328.41
2022-12-15T13:25:27.255Z,95318.94
2022-12-15T13:28:11.728Z,95314.06
2022-12-15T13:31:17.069Z,95299.03
2022-12-15T13:34:13.150Z,95313.69
2022-12-15T13:36:40.138Z,95334.94
2022-12-15T13:39:13.227Z,95340.94
2022-12-15T13:42:07.419Z,95363.69
2022-12-15T13:44:41.432Z,95361.13
2022-12-15T13:47:20.397Z,95347.56
2022-12-15T13:50:02.142Z,95331.06
2022-12-15T13:53:17.341Z,95323.41
2022-12-15T13:55:38.262Z,95361.25
2022-12-15T13:58:16.886Z,95344.88
2022-12-15T14:00:53.525Z,95342.41
2022-12-15T14:03:20.896Z,95355.53
2022-12-15T14:05:53.992Z,95374.06
2022-12-15T14:08:23.537Z,95364.34
2022-12-15T14:10:56.066Z,95360.19
2022-12-15T14:13:26.866Z,95360.91
2022-12-15T14:16:00.622Z,95387.88
2022-12-15T14:18:33.827Z,95377.84
2022-12-15T14:21:05.279Z,95394.09
2022-12-15T14:24:11.042Z,95400.25
2022-12-15T14:26:31.996Z,95401.81
2022-12-15T14:29:05.625Z,95386.78
2022-12-15T14:31:33.298Z,95388.41
2022-12-15T14:34:09.286Z,95386.88
2022-12-15T14:36:36.970Z,95379.38
2022-12-15T14:39:12.187Z,95382.75
2022-12-15T14:41:45.447Z,95373.84
2022-12-15T14:44:36.284Z,95376.19
2022-12-15T14:47:08.574Z,95375.22
2022-12-15T14:49:45.470Z,95381.03
2022-12-15T14:52:26.316Z,95388.78
2022-12-15T14:54:59.206Z,95382.25
2022-12-15T14:57:44.580Z,95376.28
2022-12-15T15:00:32.702Z,95363.78
2022-12-15T15:03:11.089Z,95370.75
2022-12-15T15:05:51.802Z,95370.78
2022-12-15T15:08:35.410Z,95373.19
2022-12-15T15:11:18.774Z,95365.66
2022-12-15T15:13:47.116Z,95359.09
2022-12-15T15:16:16.079Z,95347.19
2022-12-15T15:18:44.027Z,95339.03
2022-12-15T15:21:19.090Z,95321.19
2022-12-15T15:24:04.030Z,95330.94
2022-12-15T15:26:31.559Z,95338.69
2022-12-15T15:28:58.788Z,95343.06
2022-12-15T15:31:25.818Z,95331.94
2022-12-15T15:33:53.568Z,95345.28
2022-12-15T15:36:22.055Z,95345.72
2022-12-15T15:38:49.117Z,95362.38
2022-12-15T15:41:18.300Z,95360.78
2022-12-15T15:43:45.967Z,95360.41
2022-12-15T15:46:16.198Z,95358.22
2022-12-15T15:48:50.329Z,95359.03
2022-12-15T15:51:17.846Z,95365.56
2022-12-15T15:53:46.115Z,95362.59
2022-12-15T15:56:14.841Z,95358.47
2022-12-15T15:58:44.019Z,95360.44
2022-12-15T16:01:13.493Z,95366.81
2022-12-15T16:03:41.572Z,95363.41
2022-12-15T16:06:17.503Z,95365.00
2022-12-15T16:08:46.976Z,95367.78
2022-12-15T16:11:14.074Z,95369.00
2022-12-15T16:13:40.974Z,95370.22
2022-12-15T16:16:18.917Z,95374.19
2022-12-15T16:18:46.232Z,95367.03
2022-12-15T16:21:14.733Z,95370.59
2022-12-15T16:23:45.104Z,95365.06
2022-12-15T16:26:17.929Z,95363.09
2022-12-15T16:28:44.837Z,95363.47
2022-12-15T16:31:16.403Z,95365.06
2022-12-15T16:33:43.550Z,95374.22
2022-12-15T16:36:14.050Z,95379.75
2022-12-15T16:38:41.411Z,95384.75
2022-12-15T16:41:14.620Z,95388.53
2022-12-15T16:43:47.730Z,95387.72
2022-12-15T16:46:16.271Z,95387.13
2022-12-15T16:48:43.671Z,95386.34
2022-12-15T16:51:34.399Z,95383.38
2022-12-15T16:54:01.707Z,95380.81
2022-12-15T16:56:28.735Z,95371.88
2022-12-15T16:59:15.563Z,95372.88
2022-12-15T17:01:45.080Z,95374.06
2022-12-15T17:04:12.445Z,95372.69
2022-12-15T17:06:39.908Z,95381.03
2022-12-15T17:09:08.987Z,95370.69
2022-12-15T17:11:36.172Z,95377.44
2022-12-15T17:14:03.201Z,95381.22
2022-12-15T17:16:30.222Z,95374.06
2022-12-15T17:18:57.688Z,95371.69
2022-12-15T17:21:30.849Z,95382.44
2022-12-15T17:24:12.231Z,95386.38
2022-12-15T17:26:39.409Z,95385.81
2022-12-15T17:29:17.048Z,95377.66
2022-12-15T17:31:44.071Z,95377.88
2022-12-15T17:34:25.928Z,95373.91
2022-12-15T17:36:53.077Z,95373.13
2022-12-15T17:39:22.101Z,95370.31
2022-12-15T17:42:01.001Z,95374.91
2022-12-15T17:44:37.951Z,95366.56
2022-12-15T17:47:08.835Z,95365.41
2022-12-15T17:49:38.592Z,95372.53
2022-12-15T17:52:36.978Z,95362.63
2022-12-15T17:55:11.029Z,95361.63
2022-12-15T17:57:38.057Z,95363.59
2022-12-15T18:00:26.056Z,95366.59
2022-12-15T18:02:54.607Z,95366.00
2022-12-15T18:05:23.970Z,95361.63
2022-12-15T18:07:55.129Z,95364.41
2022-12-15T18:10:24.566Z,95361.63
2022-12-15T18:12:51.641Z,95359.84
2022-12-15T18:15:22.811Z,95350.34
2022-12-15T18:17:50.126Z,95367.41
2022-12-15T18:20:18.137Z,95365.00
2022-12-15T18:22:46.528Z,95372.94
2022-12-15T18:25:19.678Z,95366.19
2022-12-15T18:27:47.031Z,95343.00
2022-12-15T18:30:21.931Z,95346.56
2022-12-15T18:32:51.168Z,95342.41
2022-12-15T18:35:40.226Z,95355.31
2022-12-15T18:38:16.408Z,95358.06
2022-12-15T18:40:45.837Z,95360.06
2022-12-15T18:43:15.941Z,95370.00
2022-12-15T18:45:44.048Z,95362.84
2022-12-15T18:48:33.481Z,95340.63
2022-12-15T18:51:02.708Z,95332.91
2022-12-15T18:53:35.920Z,95326.97
2022-12-15T18:56:06.309Z,95352.75
2022-12-15T18:58:38.123Z,95349.19
2022-12-15T19:01:06.213Z,95347.78
2022-12-15T19:03:35.237Z,95330.75
2022-12-15T19:06:25.442Z,95328.16
2022-12-15T19:08:53.090Z,95326.38
2022-12-15T19:11:35.869Z,95331.94
2022-12-15T19:14:04.946Z,95334.50
2022-12-15T19:16:52.120Z,95325.19
2022-12-15T19:19:37.872Z,95324.78
2022-12-15T19:22:31.299Z,95313.69
2022-12-15T19:24:59.819Z,95306.94
2022-12-15T19:27:27.368Z,95302.78
2022-12-15T19:29:55.176Z,95296.44
2022-12-15T19:32:27.024Z,95299.41
2022-12-15T19:34:53.968Z,95283.53
2022-12-15T19:37:27.803Z,95291.47
2022-12-15T19:39:57.111Z,95280.97
2022-12-15T19:42:36.439Z,95274.81
2022-12-15T19:45:24.485Z,95273.22
2022-12-15T19:47:51.677Z,95271.00
2022-12-15T19:50:28.407Z,95267.88
2022-12-15T19:52:59.707Z,95267.28
2022-12-15T19:55:32.868Z,95263.69
2022-12-15T19:58:01.399Z,95258.16
2022-12-15T20:00:28.568Z,95260.91
2022-12-15T20:02:55.869Z,95263.50
2022-12-15T20:05:24.799Z,95247.81
2022-12-15T20:07:55.078Z,95245.44
2022-12-15T20:10:31.288Z,95246.22
2022-12-15T20:13:00.276Z,95238.13
2022-12-15T20:15:27.527Z,95232.00
2022-12-15T20:17:58.113Z,95237.16
2022-12-15T20:20:28.268Z,95232.00
2022-12-15T20:22:57.786Z,95221.28
2022-12-15T20:25:32.527Z,95233.97
2022-12-15T20:28:00.847Z,95227.22
2022-12-15T20:30:32.851Z,95223.50
2022-12-15T20:33:04.289Z,95226.66
2022-12-15T20:35:35.026Z,95234.56
2022-12-15T20:38:13.687Z,95240.34
2022-12-15T20:40:40.728Z,95230.84
2022-12-15T20:43:19.476Z,95231.63
2022-12-15T20:45:51.990Z,95237.78
2022-12-15T20:48:22.063Z,95237.16
2022-12-15T20:50:50.007Z,95227.44
2022-12-15T20:53:23.423Z,95223.88
2022-12-15T20:55:52.609Z,95219.88
2022-12-15T20:58:20.666Z,95221.91
2022-12-15T21:00:49.233Z,95225.63
2022-12-15T21:03:30.316Z,95215.13
2022-12-15T21:05:58.811Z,95205.63
2022-12-15T21:08:29.846Z,95211.38
2022-12-15T21:11:01.800Z,95211.94
2022-12-15T21:13:33.366Z,95206.78
2022-12-15T21:16:01.046Z,95208.97
2022-12-15T21:21:26.428Z,95214.31
2022-12-15T21:23:53.667Z,95213.31
2022-12-15T21:26:23.045Z,95208.34
2022-12-15T21:28:54.748Z,95211.72
2022-12-15T21:31:22.229Z,95202.38
2022-12-15T21:33:49.510Z,95196.84
2022-12-15T21:36:19.553Z,95189.69
2022-12-15T21:38:49.487Z,95190.25
2022-12-15T21:41:21.098Z,95183.53
2022-12-15T21:43:48.937Z,95179.75
2022-12-15T21:46:23.479Z,95190.84
2022-12-15T21:49:11.856Z,95189.88
2022-12-15T21:51:39.995Z,95181.13
2022-12-15T21:54:28.857Z,95184.91
2022-12-15T21:56:58.167Z,95180.53
2022-12-15T21:59:30.015Z,95182.31
2022-12-15T22:01:57.142Z,95177.78
2022-12-15T22:04:28.399Z,95179.38
2022-12-15T22:06:55.407Z,95189.28
2022-12-15T22:09:22.469Z,95190.09
2022-12-15T22:11:53.851Z,95193.25
2022-12-15T22:14:28.696Z,95190.50
2022-12-15T22:16:56.457Z,95202.19
2022-12-15T22:19:24.230Z,95193.25
2022-12-15T22:21:52.209Z,95180.19
2022-12-15T22:24:19.786Z,95180.75
2022-12-15T22:26:47.348Z,95172.47
2022-12-15T22:29:18.559Z,95171.88
2022-12-15T22:31:47.408Z,95165.31
2022-12-15T22:34:17.219Z,95154.66
2022-12-15T22:36:44.568Z,95149.66
2022-12-15T22:39:12.269Z,95138.75
2022-12-15T22:41:41.179Z,95134.38
2022-12-15T22:44:21.827Z,95124.72
2022-12-15T22:46:50.118Z,95124.50
2022-12-15T22:49:23.519Z,95109.84
2022-12-15T22:51:50.547Z,95092.78
2022-12-15T22:54:19.208Z,95098.13
2022-12-15T22:56:49.511Z,95089.38
2022-12-15T22:59:43.689Z,95074.25
2022-12-15T23:02:11.287Z,95066.31
2022-12-15T23:04:38.308Z,95055.00
2022-12-15T23:07:11.865Z,95050.66
2022-12-15T23:09:38.888Z,95041.97
2022-12-15T23:12:05.990Z,95030.47
2022-12-15T23:14:51.446Z,95027.91
2022-12-15T23:17:18.532Z,95023.72
2022-12-15T23:19:46.438Z,95016.44
2022-12-15T23:22:14.057Z,95010.69
2022-12-15T23:24:41.286Z,95003.16
2022-12-15T23:27:11.866Z,95009.09
2022-12-15T23:29:38.912Z,95000.22
2022-12-15T23:32:06.229Z,94989.31
2022-12-15T23:34:33.147Z,94996.47
2022-12-15T23:37:00.130Z,94996.91
2022-12-15T23:39:27.270Z,95004.44
2022-12-15T23:41:54.237Z,95002.25
2022-12-15T23:44:21.756Z,95007.75
2022-12-15T23:46:48.869Z,95009.56
2022-12-15T23:49:15.916Z,95010.34
2022-12-15T23:51:42.957Z,95010.34
2022-12-15T23:54:10.349Z,95013.25
2022-12-15T23:56:39.538Z,95010.94
2022-12-15T23:59:06.886Z,95007.94
